Time;durP1;ratioP1;P1;durP2;ratioP2;P2;SDS_P1;SDS_P2;PMS_P1;PMS_P2;Temp;Humidity;BMP_temperature;BMP_pressure;BME280_temperature;BME280_humidity;BME280_pressure;Samples;Min_cycle;Max_cycle;Signal;HPM_P1;HPM_P2
2022/04/28 00:02:01;;;;;;;9.87;7.37;;;;;;;9.48;55.09;102480.53;5038283;28;20217;-68
2022/04/28 00:04:27;;;;;;;11.30;7.30;;;;;;;9.52;55.91;102482.44;5038638;28;20178;-69
2022/04/28 00:06:52;;;;;;;12.43;7.97;;;;;;;9.62;55.29;102479.41;5038330;28;20265;-69
2022/04/28 00:09:17;;;;;;;14.33;7.20;;;;;;;9.70;55.48;102474.50;5038263;28;20213;-68
2022/04/28 00:11:43;;;;;;;14.53;7.30;;;;;;;9.41;55.59;102475.06;5038646;28;20543;-68
2022/04/28 00:14:08;;;;;;;8.50;6.60;;;;;;;9.27;55.91;102471.88;5038071;28;20170;-68
2022/04/28 00:16:37;;;;;;;10.23;7.53;;;;;;;9.71;55.64;102479.75;5038154;28;20174;-68
2022/04/28 00:19:03;;;;;;;12.83;7.40;;;;;;;9.31;56.32;102480.72;5038489;28;20572;-67
2022/04/28 00:21:28;;;;;;;12.10;7.80;;;;;;;9.32;56.04;102473.78;5037577;28;20542;-67
2022/04/28 00:23:53;;;;;;;18.57;8.10;;;;;;;9.52;55.94;102485.06;5038328;28;20235;-67
2022/04/28 00:26:20;;;;;;;10.50;7.57;;;;;;;9.33;56.23;102472.97;5038885;28;20170;-68
2022/04/28 00:28:46;;;;;;;9.83;7.40;;;;;;;9.12;56.75;102478.13;5038100;28;20170;-69
2022/04/28 00:31:11;;;;;;;14.27;8.57;;;;;;;8.99;56.95;102480.19;5038496;28;20439;-67
2022/04/28 00:33:36;;;;;;;14.67;8.30;;;;;;;9.04;57.01;102477.81;5038677;28;20174;-67
2022/04/28 00:36:01;;;;;;;14.33;8.43;;;;;;;9.30;56.40;102478.94;5037918;28;20481;-68
2022/04/28 00:38:27;;;;;;;10.87;8.13;;;;;;;9.19;56.49;102475.00;5037935;28;20263;-67
2022/04/28 00:40:52;;;;;;;16.93;8.20;;;;;;;9.23;56.84;102482.09;5038509;28;20607;-68
2022/04/28 00:43:26;;;;;;;15.30;8.00;;;;;;;9.09;56.99;102481.47;5037697;28;20220;-68
2022/04/28 00:45:51;;;;;;;16.37;8.33;;;;;;;9.16;56.64;102480.03;5050945;28;20221;-69
2022/04/28 00:51:04;;;;;;;15.50;8.33;;;;;;;9.11;56.92;102482.44;5078067;28;20460;-67
2022/04/28 00:53:30;;;;;;;14.63;8.57;;;;;;;8.84;57.44;102477.81;5078003;28;20415;-68
2022/04/28 00:55:57;;;;;;;14.67;8.03;;;;;;;9.14;56.91;102479.97;5081724;28;20443;-68
2022/04/28 00:58:23;;;;;;;12.90;8.13;;;;;;;8.82;57.42;102486.34;5081438;28;20732;-68
2022/04/28 01:00:49;;;;;;;12.67;8.20;;;;;;;9.14;56.75;102486.91;5081861;28;20447;-68
2022/04/28 01:03:14;;;;;;;12.77;8.63;;;;;;;8.81;57.50;102487.16;5081348;28;20501;-68
2022/04/28 01:05:40;;;;;;;11.47;7.70;;;;;;;9.02;57.00;102489.84;5081521;28;20542;-68
2022/04/28 01:08:06;;;;;;;18.63;8.60;;;;;;;9.00;57.64;102489.78;5081279;28;20171;-67
2022/04/28 01:10:32;;;;;;;14.33;9.77;;;;;;;8.93;57.41;102492.94;5081414;28;20205;-68
2022/04/28 01:12:57;;;;;;;12.93;8.00;;;;;;;8.86;57.55;102491.78;5081364;28;20470;-68
2022/04/28 01:15:22;;;;;;;13.40;8.70;;;;;;;8.58;58.20;102490.50;5081909;28;20526;-68
2022/04/28 01:17:48;;;;;;;13.67;8.57;;;;;;;8.87;58.15;102487.47;5081225;28;20181;-68
2022/04/28 01:20:13;;;;;;;12.53;8.57;;;;;;;8.90;57.38;102487.59;5081114;28;20203;-69
2022/04/28 01:22:38;;;;;;;11.63;8.30;;;;;;;8.92;57.53;102486.84;5081432;28;20295;-68
2022/04/28 01:25:07;;;;;;;15.00;9.13;;;;;;;9.00;57.37;102483.66;5081340;28;20518;-69
2022/04/28 01:27:33;;;;;;;16.50;9.43;;;;;;;8.94;57.67;102489.50;5081240;28;20542;-68
2022/04/28 01:29:59;;;;;;;18.80;9.67;;;;;;;9.15;57.06;102486.09;5081594;28;20407;-68
2022/04/28 01:32:24;;;;;;;14.20;9.20;;;;;;;8.81;57.57;102492.38;5080973;28;20502;-69
2022/04/28 01:34:50;;;;;;;14.93;7.80;;;;;;;8.89;57.92;102491.00;5079832;28;20499;-69
2022/04/28 01:37:16;;;;;;;11.10;9.27;;;;;;;8.71;58.41;102491.97;5080629;28;20160;-68
2022/04/28 01:39:41;;;;;;;11.87;8.67;;;;;;;9.00;57.64;102488.88;5081004;28;20256;-68
2022/04/28 01:42:06;;;;;;;15.00;9.67;;;;;;;9.00;57.79;102488.88;5080744;28;20208;-68
2022/04/28 01:44:33;;;;;;;13.10;8.80;;;;;;;8.97;58.16;102497.47;5081361;28;20578;-68
2022/04/28 01:46:58;;;;;;;16.10;9.13;;;;;;;8.88;58.27;102484.91;5080567;28;20495;-68
2022/04/28 01:49:23;;;;;;;18.77;9.20;;;;;;;8.74;58.86;102489.50;5079808;28;20427;-68
2022/04/28 01:57:16;;;;;;;13.43;9.17;;;;;;;8.59;60.42;102491.38;5080762;28;20730;-68
2022/04/28 01:59:42;;;;;;;14.60;9.80;;;;;;;8.88;60.10;102494.44;5080445;28;20447;-68
2022/04/28 02:02:07;;;;;;;9.97;8.93;;;;;;;8.87;60.46;102484.84;5080423;28;20222;-67
2022/04/28 02:04:32;;;;;;;13.63;9.30;;;;;;;9.16;59.31;102485.25;5080779;28;20188;-68
2022/04/28 02:06:57;;;;;;;11.43;8.97;;;;;;;8.92;60.52;102485.97;5080513;28;20181;-68
2022/04/28 02:09:23;;;;;;;16.17;8.77;;;;;;;8.92;60.47;102486.84;5080402;28;20172;-67
2022/04/28 02:11:48;;;;;;;14.33;10.03;;;;;;;8.87;60.72;102485.72;5080754;28;20165;-69
2022/04/28 02:14:13;;;;;;;12.30;9.93;;;;;;;8.68;61.62;102489.22;5080497;28;20172;-68
2022/04/28 02:16:39;;;;;;;12.50;9.30;;;;;;;8.61;62.22;102492.38;5080296;28;20472;-69
2022/04/28 02:19:04;;;;;;;17.80;10.37;;;;;;;8.73;62.68;102489.44;5080455;28;20554;-68
2022/04/28 02:21:29;;;;;;;14.40;11.13;;;;;;;8.70;63.10;102486.69;5080010;28;20231;-68
2022/04/28 02:23:54;;;;;;;16.10;10.30;;;;;;;8.57;63.83;102483.53;5080245;28;20201;-67
2022/04/28 02:26:20;;;;;;;18.90;11.40;;;;;;;8.75;63.62;102478.28;5080418;28;20562;-68
2022/04/28 02:28:45;;;;;;;16.30;11.10;;;;;;;8.69;63.86;102477.13;5080152;28;20173;-68
2022/04/28 02:31:10;;;;;;;13.53;10.30;;;;;;;8.60;63.85;102480.19;5080182;28;20184;-68
2022/04/28 02:33:36;;;;;;;17.90;11.30;;;;;;;8.71;64.27;102481.56;5081190;28;20270;-68
2022/04/28 02:36:01;;;;;;;14.40;11.30;;;;;;;8.76;64.53;102485.25;5080476;28;20188;-67
2022/04/28 02:38:26;;;;;;;20.40;13.07;;;;;;;8.60;64.73;102493.19;5079765;28;20173;-67
2022/04/28 02:40:52;;;;;;;17.37;12.10;;;;;;;8.39;65.50;102491.34;5082169;28;20223;-68
2022/04/28 02:43:18;;;;;;;17.27;13.00;;;;;;;8.57;65.52;102485.25;5081521;28;20287;-68
2022/04/28 02:45:44;;;;;;;16.00;12.17;;;;;;;8.25;66.17;102489.78;5079546;28;20261;-68
2022/04/28 02:48:09;;;;;;;20.17;12.47;;;;;;;8.12;66.19;102493.53;5080293;28;20490;-67
2022/04/28 02:50:35;;;;;;;15.00;11.90;;;;;;;8.34;66.18;102482.44;5080062;28;20187;-68
2022/04/28 02:53:01;;;;;;;17.27;11.27;;;;;;;8.30;66.20;102490.03;5079380;28;20475;-67
2022/04/28 02:55:26;;;;;;;16.13;12.63;;;;;;;8.11;66.72;102488.25;5079990;28;20418;-67
2022/04/28 02:57:52;;;;;;;15.80;12.20;;;;;;;8.18;66.84;102479.94;5079452;28;20181;-67
2022/04/28 03:00:17;;;;;;;18.20;13.23;;;;;;;8.14;67.15;102481.47;5079347;28;20192;-67
2022/04/28 03:02:42;;;;;;;18.17;12.37;;;;;;;8.34;66.51;102484.16;5079503;28;20258;-68
2022/04/28 03:05:08;;;;;;;15.60;11.60;;;;;;;7.75;68.09;102492.63;5079338;28;20188;-68
2022/04/28 03:13:12;;;;;;;17.27;11.80;;;;;;;8.28;67.11;102479.56;5079039;28;20468;-69
2022/04/28 03:15:39;;;;;;;16.97;12.30;;;;;;;8.26;67.11;102487.25;5079030;28;20493;-68
2022/04/28 03:18:04;;;;;;;20.00;12.60;;;;;;;8.12;67.18;102483.13;5078456;28;20183;-68
2022/04/28 03:20:30;;;;;;;17.10;11.20;;;;;;;7.89;67.78;102489.81;5079459;28;20493;-70
2022/04/28 03:22:55;;;;;;;22.20;12.60;;;;;;;8.04;67.18;102487.94;5078850;28;20218;-68
2022/04/28 03:25:20;;;;;;;14.80;10.63;;;;;;;7.90;67.65;102478.59;5078988;28;20188;-71
2022/04/28 03:27:46;;;;;;;19.43;11.70;;;;;;;8.09;67.71;102483.88;5078977;28;20559;-68
2022/04/28 03:30:12;;;;;;;17.33;11.87;;;;;;;7.89;67.75;102487.22;5078755;28;20184;-68
2022/04/28 03:32:37;;;;;;;17.70;11.30;;;;;;;8.01;67.15;102489.50;5078504;28;20461;-68
2022/04/28 03:35:03;;;;;;;20.03;11.70;;;;;;;7.98;67.51;102481.56;5079168;28;20169;-69
2022/04/28 03:37:28;;;;;;;14.40;11.57;;;;;;;8.12;67.34;102484.81;5078581;28;20200;-68
2022/04/28 03:39:53;;;;;;;17.40;12.40;;;;;;;8.16;67.28;102486.75;5078405;28;20184;-68
2022/04/28 03:42:19;;;;;;;22.03;11.20;;;;;;;8.28;66.61;102489.94;5078906;28;20204;-68
2022/04/28 03:44:45;;;;;;;16.67;12.50;;;;;;;7.78;67.13;102490.97;5078582;28;20184;-67
2022/04/28 03:47:10;;;;;;;23.93;11.80;;;;;;;7.75;67.56;102494.31;5078252;28;20303;-67
2022/04/28 03:49:35;;;;;;;19.63;11.60;;;;;;;8.04;66.75;102494.88;5079249;28;20169;-68
2022/04/28 03:52:01;;;;;;;16.70;12.27;;;;;;;7.98;66.53;102490.25;5078278;28;20468;-69
2022/04/28 03:54:26;;;;;;;20.37;12.37;;;;;;;7.73;67.53;102495.97;5078541;28;20255;-67
2022/04/28 03:56:51;;;;;;;18.80;12.00;;;;;;;7.66;67.69;102494.75;5078967;28;20255;-69
2022/04/28 03:59:17;;;;;;;19.13;11.57;;;;;;;7.84;67.79;102505.16;5078884;28;20224;-67
2022/04/28 04:01:42;;;;;;;19.33;12.20;;;;;;;7.68;67.86;102498.31;5078241;28;20484;-67
2022/04/28 04:04:07;;;;;;;21.37;11.30;;;;;;;7.62;67.98;102490.22;5078963;28;20220;-67
2022/04/28 04:06:33;;;;;;;18.53;10.63;;;;;;;7.74;67.37;102498.63;5078331;28;20177;-68
2022/04/28 04:08:58;;;;;;;17.40;10.70;;;;;;;7.88;67.23;102501.88;5078198;28;20173;-68
2022/04/28 04:11:23;;;;;;;17.80;11.60;;;;;;;8.02;66.91;102497.34;5079228;28;20487;-68
2022/04/28 04:13:49;;;;;;;21.23;12.10;;;;;;;7.74;67.55;102509.00;5078517;28;20172;-68
2022/04/28 04:16:14;;;;;;;19.57;12.10;;;;;;;8.26;66.25;102501.97;5078078;28;20173;-69
2022/04/28 04:18:39;;;;;;;21.37;12.60;;;;;;;7.97;66.60;102508.34;5078465;28;20185;-69
2022/04/28 04:21:05;;;;;;;16.50;11.70;;;;;;;8.27;65.70;102508.97;5078510;28;20200;-69
2022/04/28 04:23:31;;;;;;;21.70;11.80;;;;;;;8.29;65.71;102504.69;5078366;28;20192;-71
2022/04/28 04:25:57;;;;;;;19.40;12.70;;;;;;;7.80;66.49;102510.13;5078532;28;20526;-69
2022/04/28 04:28:22;;;;;;;16.97;12.77;;;;;;;8.21;65.78;102513.84;5078206;28;20433;-69
2022/04/28 04:33:31;;;;;;;13.50;11.60;;;;;;;9.67;61.16;102503.91;5082910;28;20255;-68
2022/04/28 04:35:57;;;;;;;17.77;11.80;;;;;;;11.06;57.38;102500.59;5082743;28;20442;-69
2022/04/28 04:38:22;;;;;;;16.93;10.93;;;;;;;10.90;56.62;102501.78;5082126;28;20919;-69
2022/04/28 04:40:47;;;;;;;15.40;10.80;;;;;;;11.19;55.05;102497.59;5082239;28;20169;-70
2022/04/28 04:43:15;;;;;;;16.17;11.47;;;;;;;12.09;53.42;102492.78;5077421;28;20196;-69
2022/04/28 04:45:44;;;;;;;17.13;10.30;;;;;;;10.79;55.20;102507.47;5077891;28;20308;-68
2022/04/28 04:48:10;;;;;;;12.30;10.60;;;;;;;11.41;54.57;102512.28;5067223;28;20437;-68
2022/04/28 04:50:36;;;;;;;12.33;10.20;;;;;;;12.30;52.84;102503.03;5063333;28;20420;-69
2022/04/28 04:53:01;;;;;;;16.87;9.97;;;;;;;11.73;52.52;102509.91;5066754;28;20483;-68
2022/04/28 04:55:26;;;;;;;17.63;9.20;;;;;;;11.29;54.18;102510.13;5070597;28;20179;-70
2022/04/28 04:57:52;;;;;;;12.33;10.67;;;;;;;10.74;56.29;102516.88;5081866;28;20207;-69
2022/04/28 05:00:18;;;;;;;15.10;10.70;;;;;;;10.05;58.20;102522.84;5081452;28;20211;-70
2022/04/28 05:02:43;;;;;;;14.77;11.53;;;;;;;9.78;60.03;102523.50;5081400;28;20478;-69
2022/04/28 05:05:08;;;;;;;15.37;10.50;;;;;;;10.10;57.98;102517.81;5081758;28;20238;-69
2022/04/28 05:07:34;;;;;;;14.20;11.03;;;;;;;9.91;58.65;102521.38;5071870;28;20191;-69
2022/04/28 05:10:00;;;;;;;15.30;11.30;;;;;;;9.51;60.10;102530.13;5074311;28;20177;-70
2022/04/28 05:12:25;;;;;;;18.20;11.40;;;;;;;9.37;60.38;102535.63;5081582;28;20402;-70
2022/04/28 05:14:51;;;;;;;15.50;10.87;;;;;;;9.51;60.95;102540.53;5080503;28;20231;-69
2022/04/28 05:17:16;;;;;;;14.70;11.10;;;;;;;9.72;59.87;102533.66;5081076;28;20421;-70
2022/04/28 05:19:42;;;;;;;15.07;10.23;;;;;;;9.51;60.12;102535.34;5081480;28;20176;-71
2022/04/28 05:22:07;;;;;;;17.03;12.13;;;;;;;9.59;60.09;102542.66;5081060;28;20212;-69
2022/04/28 05:24:33;;;;;;;19.10;10.67;;;;;;;9.58;59.63;102540.00;5081626;28;20213;-70
2022/04/28 05:26:58;;;;;;;13.00;11.07;;;;;;;10.00;59.06;102537.41;5081551;28;20161;-70
2022/04/28 05:29:23;;;;;;;18.50;10.93;;;;;;;10.84;57.49;102545.88;5081260;28;20173;-69
2022/04/28 05:31:49;;;;;;;18.00;10.67;;;;;;;11.70;53.88;102546.34;5081107;28;20590;-71
2022/04/28 05:34:14;;;;;;;12.57;9.23;;;;;;;14.47;47.18;102534.09;5081488;28;20169;-70
2022/04/28 05:36:40;;;;;;;11.40;8.90;;;;;;;15.77;43.07;102526.13;5080938;28;20177;-71
2022/04/28 05:39:06;;;;;;;46.83;29.10;;;;;;;16.98;41.05;102517.34;5080164;28;20382;-70
2022/04/28 05:41:32;;;;;;;14.43;9.43;;;;;;;17.49;39.17;102518.78;5080756;28;20196;-71
2022/04/28 05:46:41;;;;;;;17.07;9.23;;;;;;;17.61;37.99;102519.75;5080070;28;20741;-70
2022/04/28 05:49:06;;;;;;;13.10;8.53;;;;;;;17.76;37.60;102517.25;5080438;28;20419;-70
2022/04/28 05:51:32;;;;;;;9.87;8.57;;;;;;;17.65;37.89;102518.91;5080393;28;20173;-70
2022/04/28 05:53:57;;;;;;;11.07;7.77;;;;;;;18.13;37.38;102519.31;5080924;28;20209;-70
2022/04/28 05:56:23;;;;;;;13.30;8.37;;;;;;;18.24;36.84;102517.63;5080601;28;20178;-69
2022/04/28 05:58:49;;;;;;;9.73;8.03;;;;;;;18.74;35.73;102516.13;5080531;28;20526;-69
2022/04/28 06:01:14;;;;;;;10.10;7.63;;;;;;;19.33;34.96;102514.53;5079847;28;20173;-70
2022/04/28 06:03:41;;;;;;;13.33;9.50;;;;;;;18.17;36.94;102516.72;5080325;28;20252;-70
2022/04/28 06:06:07;;;;;;;8.03;7.23;;;;;;;18.42;36.35;102522.13;5080331;28;20168;-70
2022/04/28 06:08:32;;;;;;;13.43;8.27;;;;;;;18.55;35.99;102519.56;5080760;28;20395;-70
2022/04/28 06:10:58;;;;;;;8.70;7.67;;;;;;;17.88;37.30;102520.88;5080279;28;20828;-70
2022/04/28 06:13:24;;;;;;;9.20;6.80;;;;;;;18.92;34.43;102525.91;5080170;28;20173;-69
2022/04/28 06:15:49;;;;;;;9.60;7.60;;;;;;;19.71;34.39;102522.53;5080690;28;20238;-70
2022/04/28 06:18:14;;;;;;;9.90;7.83;;;;;;;17.99;36.29;102532.41;5079928;28;20185;-70
2022/04/28 06:20:40;;;;;;;11.00;9.07;;;;;;;17.59;37.36;102527.66;5080174;28;20169;-72
2022/04/28 06:23:05;;;;;;;12.20;7.73;;;;;;;18.63;35.42;102536.31;5079545;28;20467;-71
2022/04/28 06:25:32;;;;;;;7.90;7.10;;;;;;;18.74;35.36;102539.00;5079758;28;20184;-71
2022/04/28 06:27:57;;;;;;;10.93;7.30;;;;;;;18.94;34.58;102528.56;5079719;28;20187;-73
2022/04/28 06:30:23;;;;;;;15.77;7.30;;;;;;;19.39;34.03;102526.91;5079322;28;20414;-71
2022/04/28 06:32:49;;;;;;;8.50;6.73;;;;;;;18.80;34.39;102532.00;5078602;28;20165;-72
2022/04/28 06:35:14;;;;;;;8.23;6.53;;;;;;;19.63;33.16;102538.38;5079938;28;20260;-70
2022/04/28 06:37:40;;;;;;;7.40;6.50;;;;;;;19.59;32.81;102532.22;5080039;28;20447;-70
2022/04/28 06:40:06;;;;;;;11.10;7.17;;;;;;;19.46;32.96;102539.25;5079683;28;20263;-70
2022/04/28 06:42:32;;;;;;;6.87;5.77;;;;;;;21.25;30.46;102530.03;5079443;28;20247;-72
2022/04/28 06:44:57;;;;;;;8.47;6.67;;;;;;;21.52;30.15;102528.09;5079872;28;20411;-71
2022/04/28 06:47:23;;;;;;;6.80;5.97;;;;;;;21.14;30.76;102526.59;5079140;28;20486;-72
2022/04/28 06:49:48;;;;;;;6.93;6.20;;;;;;;19.93;31.68;102534.00;5079472;28;20191;-70
2022/04/28 06:52:13;;;;;;;8.10;5.87;;;;;;;20.51;30.90;102531.25;5078688;28;20165;-71
2022/04/28 06:54:39;;;;;;;11.40;5.70;;;;;;;20.40;31.20;102535.69;5079647;28;20184;-71
2022/04/28 06:57:05;;;;;;;6.40;5.80;;;;;;;19.86;31.54;102538.41;5079442;28;20181;-71
2022/04/28 06:59:31;;;;;;;10.10;6.37;;;;;;;19.95;31.87;102540.19;5079491;28;20200;-71
2022/04/28 07:01:56;;;;;;;7.50;5.43;;;;;;;21.75;30.22;102532.38;5078810;28;20498;-71
2022/04/28 07:04:21;;;;;;;6.97;5.67;;;;;;;19.69;32.73;102543.69;5079159;28;20173;-72
2022/04/28 07:06:47;;;;;;;7.67;6.10;;;;;;;19.50;32.69;102542.81;5079795;28;20229;-71
2022/04/28 07:09:12;;;;;;;8.07;6.47;;;;;;;20.49;32.17;102533.00;5079021;28;20176;-71
2022/04/28 07:11:37;;;;;;;9.77;6.50;;;;;;;20.62;31.24;102544.47;5078924;28;20424;-72
2022/04/28 07:14:02;;;;;;;8.27;6.37;;;;;;;20.29;31.77;102546.31;5079315;28;20169;-71
2022/04/28 07:16:28;;;;;;;10.63;6.40;;;;;;;21.28;31.06;102545.06;5078710;28;20234;-73
2022/04/28 07:18:53;;;;;;;7.47;5.80;;;;;;;21.03;30.37;102545.19;5078934;28;20515;-74
2022/04/28 07:21:18;;;;;;;9.17;6.67;;;;;;;19.12;32.80;102556.78;5069322;28;20182;-75
2022/04/28 07:23:44;;;;;;;7.53;6.40;;;;;;;19.28;33.90;102557.72;5076055;28;20587;-75
2022/04/28 07:26:09;;;;;;;6.83;6.20;;;;;;;20.82;31.05;102547.06;5058302;28;20523;-73
2022/04/28 07:28:34;;;;;;;7.93;6.50;;;;;;;20.93;30.98;102546.13;5064489;28;20177;-72
2022/04/28 07:30:59;;;;;;;7.10;5.93;;;;;;;21.34;30.55;102547.69;5078723;28;20187;-73
2022/04/28 07:33:25;;;;;;;9.20;7.00;;;;;;;19.89;32.18;102564.00;5078557;28;20435;-70
2022/04/28 07:35:51;;;;;;;8.37;6.10;;;;;;;19.52;32.26;102568.38;5079095;28;20184;-70
2022/04/28 07:38:17;;;;;;;7.87;5.90;;;;;;;20.35;31.59;102564.84;5061846;28;20177;-71
2022/04/28 07:40:42;;;;;;;7.40;5.40;;;;;;;21.29;30.19;102562.75;5058602;28;20200;-72
2022/04/28 07:43:07;;;;;;;8.00;5.03;;;;;;;22.02;30.73;102558.66;5058510;28;20571;-71
2022/04/28 07:45:33;;;;;;;8.10;5.53;;;;;;;21.06;31.05;102570.81;5058047;28;20174;-75
2022/04/28 07:47:58;;;;;;;5.93;5.13;;;;;;;24.44;27.63;102561.50;5058261;28;20185;-71
2022/04/28 07:50:23;;;;;;;8.73;5.53;;;;;;;19.68;32.55;102581.59;5058538;28;20227;-79
2022/04/28 07:52:49;;;;;;;10.97;5.67;;;;;;;20.77;32.29;102575.38;5058482;28;20173;-78
2022/04/28 07:55:14;;;;;;;7.63;5.17;;;;;;;21.16;31.10;102573.41;5072794;28;20465;-70
2022/04/28 07:57:41;;;;;;;10.47;5.80;;;;;;;21.73;30.67;102572.19;5078627;28;20505;-70
2022/04/28 08:00:08;;;;;;;7.23;5.03;;;;;;;21.94;29.51;102572.91;5078194;28;20427;-70
2022/04/28 08:02:36;;;;;;;10.90;5.90;;;;;;;22.02;29.64;102565.75;5077511;28;20470;-70
2022/04/28 08:05:01;;;;;;;8.37;5.50;;;;;;;23.77;28.44;102564.44;5078678;28;20418;-70
2022/04/28 08:07:26;;;;;;;9.20;5.30;;;;;;;22.13;29.92;102566.53;5077982;28;20768;-71
2022/04/28 08:09:52;;;;;;;8.03;4.97;;;;;;;21.74;30.56;102565.97;5077997;28;20181;-69
2022/04/28 08:12:18;;;;;;;6.50;5.03;;;;;;;20.73;31.87;102578.00;5078244;28;20214;-73
2022/04/28 08:14:43;;;;;;;6.83;6.13;;;;;;;21.51;30.27;102577.63;5078235;28;20169;-73
2022/04/28 08:17:08;;;;;;;6.53;5.80;;;;;;;22.45;29.19;102577.78;5078153;28;20219;-73
2022/04/28 08:19:34;;;;;;;35.77;6.60;;;;;;;23.72;28.34;102574.31;5078936;28;20532;-75
2022/04/28 08:22:00;;;;;;;7.97;5.90;;;;;;;23.23;28.18;102585.69;5077881;28;20648;-72
2022/04/28 08:24:25;;;;;;;8.40;6.27;;;;;;;23.04;28.63;102576.16;5077279;28;20172;-74
2022/04/28 08:26:52;;;;;;;13.40;6.67;;;;;;;21.14;30.49;102583.13;5078561;28;20204;-71
2022/04/28 08:29:18;;;;;;;7.63;6.03;;;;;;;20.91;31.20;102588.56;5078230;28;20176;-71
2022/04/28 08:31:44;;;;;;;7.00;6.40;;;;;;;20.79;31.24;102578.88;5078012;28;20419;-71
2022/04/28 08:34:13;;;;;;;7.03;6.33;;;;;;;21.59;30.30;102572.28;5078573;28;20169;-70
2022/04/28 08:36:40;;;;;;;7.30;5.87;;;;;;;20.66;32.14;102578.03;5077873;28;20418;-68
2022/04/28 08:39:06;;;;;;;10.43;6.00;;;;;;;21.45;30.50;102575.00;5077890;28;20407;-69
2022/04/28 08:41:35;;;;;;;8.10;6.50;;;;;;;20.75;31.61;102585.06;5078183;28;20815;-69
2022/04/28 08:44:03;;;;;;;8.13;6.40;;;;;;;20.98;32.00;102584.09;5077975;28;20183;-69
2022/04/28 08:49:13;;;;;;;7.60;6.33;;;;;;;22.07;31.18;102590.50;5077909;28;20426;-72
2022/04/28 08:51:40;;;;;;;8.57;6.67;;;;;;;21.57;31.43;102576.75;5077520;28;20704;-72
2022/04/28 08:54:05;;;;;;;13.60;6.30;;;;;;;21.18;31.98;102582.22;5077878;28;20415;-72
2022/04/28 08:56:31;;;;;;;8.57;6.80;;;;;;;22.69;29.39;102582.81;5060096;28;20426;-72
2022/04/28 08:58:56;;;;;;;10.80;7.13;;;;;;;24.09;26.90;102573.69;5078091;28;20183;-72
2022/04/28 09:01:27;;;;;;;8.73;6.53;;;;;;;22.26;29.91;102585.91;5077541;28;20267;-72
2022/04/28 09:03:53;;;;;;;7.47;6.40;;;;;;;22.95;28.54;102583.34;5077255;28;20180;-71
2022/04/28 09:06:28;;;;;;;10.10;6.60;;;;;;;21.99;29.74;102581.72;5077764;28;20426;-72
2022/04/28 09:08:55;;;;;;;7.07;6.47;;;;;;;23.55;28.28;102577.22;5077754;28;20432;-71
2022/04/28 09:11:23;;;;;;;8.30;6.27;;;;;;;22.82;29.60;102580.00;5077433;28;20423;-71
2022/04/28 09:14:18;;;;;;;11.83;6.20;;;;;;;24.75;27.27;102568.03;5077638;28;20816;-72
2022/04/28 09:16:52;;;;;;;16.47;7.03;;;;;;;24.49;27.46;102570.28;5080172;28;20423;-72
2022/04/28 09:19:25;;;;;;;10.47;6.87;;;;;;;22.87;28.84;102584.34;5081027;28;20425;-71
2022/04/28 09:21:53;;;;;;;8.30;6.87;;;;;;;22.78;29.02;102580.94;5080054;28;20474;-71
2022/04/28 09:24:19;;;;;;;7.20;6.50;;;;;;;22.35;29.93;102584.94;5080841;28;20415;-71
2022/04/28 09:26:45;;;;;;;10.47;7.10;;;;;;;21.30;31.66;102596.34;5080909;28;20419;-70
2022/04/28 09:29:12;;;;;;;7.90;6.33;;;;;;;22.50;30.58;102590.09;5080538;28;20413;-70
2022/04/28 09:31:38;;;;;;;7.70;7.00;;;;;;;22.29;30.75;102582.31;5080678;28;20463;-72
2022/04/28 09:34:14;;;;;;;9.60;6.77;;;;;;;21.57;32.05;102584.69;5080635;28;20415;-71
2022/04/28 09:36:40;;;;;;;7.47;6.77;;;;;;;23.49;29.13;102578.22;5080874;28;20411;-71
2022/04/28 09:39:08;;;;;;;9.10;7.13;;;;;;;21.35;32.25;102584.81;5080738;28;20729;-71
2022/04/28 09:44:19;;;;;;;10.20;7.37;;;;;;;22.77;30.63;102574.75;5080910;28;20468;-71
2022/04/28 09:46:46;;;;;;;10.20;7.60;;;;;;;22.68;30.25;102574.84;5081170;28;20455;-72
2022/04/28 09:49:14;;;;;;;9.17;7.43;;;;;;;23.28;29.30;102574.06;5080575;28;20420;-73
2022/04/28 09:51:39;;;;;;;11.90;8.17;;;;;;;22.90;29.91;102579.91;5080388;28;20407;-73
2022/04/28 09:54:08;;;;;;;8.20;7.40;;;;;;;22.42;30.88;102580.44;5081301;28;20418;-73
2022/04/28 09:56:34;;;;;;;8.00;6.47;;;;;;;23.61;28.93;102569.16;5080490;28;20214;-73
2022/04/28 09:59:00;;;;;;;10.20;7.40;;;;;;;22.75;29.93;102579.19;5079764;28;20419;-73
2022/04/28 10:01:30;;;;;;;8.23;7.53;;;;;;;22.25;30.00;102577.94;5081011;28;20165;-71
2022/04/28 10:03:57;;;;;;;8.27;7.27;;;;;;;23.73;29.01;102575.19;5080317;28;20188;-69
2022/04/28 10:06:24;;;;;;;8.20;7.03;;;;;;;22.50;30.52;102575.91;5080233;28;20423;-70
2022/04/28 10:08:51;;;;;;;10.13;7.77;;;;;;;21.72;31.78;102566.88;5079663;28;20423;-72
2022/04/28 10:11:21;;;;;;;9.40;7.23;;;;;;;23.93;28.92;102567.75;5080020;28;20416;-71
2022/04/28 10:13:46;;;;;;;9.63;7.43;;;;;;;22.25;30.94;102580.59;5080109;28;20407;-70
2022/04/28 10:16:12;;;;;;;12.40;8.00;;;;;;;24.41;28.48;102576.66;5080597;28;20494;-70
2022/04/28 10:18:49;;;;;;;10.13;7.90;;;;;;;22.77;30.53;102577.41;5080114;28;20550;-70
2022/04/28 10:21:16;;;;;;;12.33;8.30;;;;;;;22.58;31.16;102570.53;5062428;28;20211;-71
2022/04/28 10:35:04;;;;;;;10.00;7.67;;;;;;;23.52;29.87;102566.66;5079287;28;20495;-70
2022/04/28 10:37:31;;;;;;;8.43;7.63;;;;;;;21.26;31.83;102568.06;5080057;28;20494;-71
2022/04/28 10:39:56;;;;;;;8.80;7.90;;;;;;;19.88;34.31;102573.72;5079609;28;20422;-71
2022/04/28 10:42:27;;;;;;;9.63;8.63;;;;;;;19.14;35.51;102578.84;5079561;28;20467;-71
2022/04/28 10:44:55;;;;;;;9.20;7.33;;;;;;;21.25;32.04;102572.47;5079954;28;20173;-69
2022/04/28 10:47:37;;;;;;;8.80;7.90;;;;;;;21.49;31.59;102552.88;5079420;28;20455;-70
2022/04/28 10:50:24;;;;;;;11.90;7.77;;;;;;;23.33;29.04;102558.94;5079581;28;20446;-72
2022/04/28 10:53:00;;;;;;;10.40;7.30;;;;;;;21.62;31.37;102552.81;5079226;28;20411;-72
2022/04/28 10:55:33;;;;;;;8.17;7.37;;;;;;;20.29;33.93;102563.97;5079403;28;20423;-73
2022/04/28 10:58:19;;;;;;;12.10;8.40;;;;;;;22.75;29.84;102551.72;5079141;28;20784;-72
2022/04/28 11:00:55;;;;;;;8.50;7.23;;;;;;;21.14;32.16;102559.28;5079295;28;20415;-73
2022/04/28 11:03:46;;;;;;;9.07;8.10;;;;;;;19.91;34.24;102563.13;5078969;28;21195;-72
2022/04/28 11:06:19;;;;;;;11.97;7.77;;;;;;;22.01;31.50;102548.06;5078243;28;20423;-71
2022/04/28 11:08:47;;;;;;;9.40;8.50;;;;;;;22.14;30.75;102549.69;5078878;28;20831;-72
2022/04/28 11:11:13;;;;;;;8.43;7.40;;;;;;;23.01;28.65;102538.06;5078733;28;20461;-73
2022/04/28 11:13:43;;;;;;;9.70;7.60;;;;;;;22.22;29.48;102541.66;5078895;28;20484;-73
2022/04/28 11:16:09;;;;;;;10.77;7.57;;;;;;;21.96;29.96;102549.88;5078920;28;20415;-72
2022/04/28 11:18:34;;;;;;;8.20;7.30;;;;;;;21.42;29.41;102548.50;5079221;28;20599;-71
2022/04/28 11:21:02;;;;;;;16.63;7.73;;;;;;;21.61;29.33;102551.03;5078761;28;20682;-71
2022/04/28 11:23:43;;;;;;;8.67;7.87;;;;;;;22.70;28.91;102549.09;5077901;28;20593;-72
2022/04/28 11:26:10;;;;;;;8.30;7.20;;;;;;;21.88;29.05;102547.28;5078637;28;20415;-73
2022/04/28 11:28:37;;;;;;;9.00;7.67;;;;;;;23.15;27.38;102546.78;5078548;28;20950;-71
2022/04/28 11:31:09;;;;;;;8.90;7.80;;;;;;;22.84;28.49;102536.53;5078600;28;20704;-72
2022/04/28 11:33:34;;;;;;;10.33;7.43;;;;;;;21.79;30.10;102550.91;5078701;28;20407;-71
2022/04/28 11:36:01;;;;;;;10.00;7.77;;;;;;;21.19;30.53;102543.34;5078998;28;20434;-73
2022/04/28 11:38:27;;;;;;;8.93;7.67;;;;;;;22.06;30.02;102546.25;5078254;28;20204;-70
2022/04/28 11:41:03;;;;;;;8.47;7.47;;;;;;;21.40;30.84;102544.97;5078470;28;20428;-72
2022/04/28 11:43:34;;;;;;;9.70;8.50;;;;;;;19.87;32.52;102555.19;5078234;28;20859;-71
2022/04/28 11:45:59;;;;;;;13.50;9.37;;;;;;;19.08;33.80;102558.56;5078574;28;20485;-70
2022/04/28 11:48:29;;;;;;;15.13;9.47;;;;;;;19.41;33.09;102551.59;5078660;28;20427;-70
2022/04/28 11:51:04;;;;;;;9.87;8.87;;;;;;;20.77;31.39;102546.22;5078384;28;20161;-71
2022/04/28 11:53:44;;;;;;;9.57;8.67;;;;;;;22.21;30.55;102548.72;5078315;28;20497;-72
2022/04/28 11:56:22;;;;;;;9.90;8.60;;;;;;;20.99;31.90;102544.31;5077745;28;20415;-71